Time;durP1;ratioP1;P1;durP2;ratioP2;P2;SDS_P1;SDS_P2;PMS_P1;PMS_P2;Temp;Humidity;BMP_temperature;BMP_pressure;BME280_temperature;BME280_humidity;BME280_pressure;Samples;Min_cycle;Max_cycle;Signal;HPM_P1;HPM_P2
2022/04/05 00:01:43;;;;;;;35.30;22.33;;;;;;;9.00;100.00;100402.97;5197925;28;20499;-80
2022/04/05 00:04:15;;;;;;;34.33;22.90;;;;;;;8.98;100.00;100398.66;5198229;28;20035;-81
2022/04/05 00:06:46;;;;;;;34.47;21.53;;;;;;;8.93;100.00;100415.19;5197647;28;20062;-79
2022/04/05 00:09:19;;;;;;;29.75;19.52;;;;;;;8.88;100.00;100397.91;5198214;28;20050;-80
2022/04/05 00:11:50;;;;;;;37.83;22.20;;;;;;;8.86;100.00;100397.06;5197575;28;20050;-80
2022/04/05 00:14:22;;;;;;;40.70;24.67;;;;;;;8.88;100.00;100400.50;5197794;28;20524;-76
2022/04/05 00:16:53;;;;;;;40.83;22.90;;;;;;;8.86;100.00;100408.31;5198181;28;20480;-82
2022/04/05 00:19:25;;;;;;;31.90;21.90;;;;;;;8.86;100.00;100408.31;5197895;28;20157;-78
2022/04/05 00:21:56;;;;;;;37.20;22.73;;;;;;;8.83;100.00;100404.91;5197907;28;20018;-76
2022/04/05 00:24:28;;;;;;;42.47;21.33;;;;;;;8.79;100.00;100404.09;5198175;28;20034;-77
2022/04/05 00:26:59;;;;;;;33.90;20.00;;;;;;;8.81;100.00;100409.28;5198891;28;20026;-84
2022/04/05 00:29:30;;;;;;;34.90;21.77;;;;;;;8.80;100.00;100415.34;5197795;28;20034;-79
2022/04/05 00:32:02;;;;;;;37.70;22.33;;;;;;;8.77;100.00;100405.81;5198103;28;20041;-78
2022/04/05 00:34:33;;;;;;;41.23;23.10;;;;;;;8.78;100.00;100414.50;5198400;28;20022;-77
2022/04/05 00:37:05;;;;;;;37.60;22.10;;;;;;;8.78;100.00;100404.09;5204790;28;20030;-83
2022/04/05 00:39:36;;;;;;;41.67;23.30;;;;;;;8.78;100.00;100407.56;5201807;28;20029;-76
2022/04/05 00:42:10;;;;;;;39.77;23.03;;;;;;;8.75;100.00;100398.03;5186032;28;20163;-76
2022/04/05 00:44:43;;;;;;;40.67;23.00;;;;;;;8.79;100.00;100418.81;5203004;28;20509;-75
2022/04/05 00:47:22;;;;;;;45.53;23.27;;;;;;;8.73;100.00;100407.59;5198739;28;20165;-78
2022/04/05 00:49:53;;;;;;;39.38;23.45;;;;;;;8.72;100.00;100415.41;5198833;28;20105;-77
2022/04/05 00:52:25;;;;;;;38.17;23.23;;;;;;;8.73;100.00;100412.78;5196286;28;20605;-77
2022/04/05 00:54:59;;;;;;;41.33;23.23;;;;;;;8.71;100.00;100409.38;5198027;28;20109;-79
2022/04/05 00:57:31;;;;;;;36.83;23.63;;;;;;;8.73;100.00;100407.59;5197505;28;20095;-80
2022/04/05 01:00:07;;;;;;;59.53;25.48;;;;;;;8.72;100.00;100418.84;5197128;28;20041;-81
2022/04/05 01:02:39;;;;;;;42.85;23.02;;;;;;;8.70;100.00;100406.78;5196524;28;20073;-80
2022/04/05 01:05:11;;;;;;;55.73;24.67;;;;;;;8.69;100.00;100411.09;5196399;28;20065;-81
2022/04/05 01:07:45;;;;;;;43.27;24.90;;;;;;;8.69;100.00;100413.69;5178356;28;20034;-81
2022/04/05 01:10:16;;;;;;;46.55;24.52;;;;;;;8.67;100.00;100417.22;5196401;28;20442;-80
2022/04/05 01:12:49;;;;;;;41.13;24.73;;;;;;;8.69;100.00;100412.84;5196514;28;20113;-77
2022/04/05 01:15:20;;;;;;;44.10;25.92;;;;;;;8.67;100.00;100410.25;5196448;28;20236;-82
2022/04/05 01:17:53;;;;;;;39.40;24.90;;;;;;;8.67;100.00;100412.00;5195913;28;20046;-78
2022/04/05 01:20:24;;;;;;;52.20;26.80;;;;;;;8.65;100.00;100409.44;5196056;28;20493;-80
2022/04/05 01:22:57;;;;;;;47.73;27.13;;;;;;;8.66;100.00;100413.75;5195240;28;20057;-76
2022/04/05 01:25:28;;;;;;;;;;;;;;;8.66;100.00;100408.56;5196024;28;20414;-80
2022/04/05 01:27:59;;;;;;;37.97;25.98;;;;;;;8.64;100.00;100417.25;5195527;28;19921;-78
2022/04/05 01:30:31;;;;;;;37.07;25.33;;;;;;;8.65;100.00;100418.97;5195449;28;20509;-75
2022/04/05 01:33:02;;;;;;;46.77;28.07;;;;;;;8.66;100.00;100415.47;5194890;28;20094;-76
2022/04/05 01:35:37;;;;;;;47.63;26.50;;;;;;;8.63;100.00;100416.38;5195068;28;20041;-81
2022/04/05 01:38:09;;;;;;;38.75;24.63;;;;;;;8.61;100.00;100423.31;5194875;28;20038;-80
2022/04/05 01:40:40;;;;;;;42.95;28.00;;;;;;;8.60;100.00;100424.22;5194788;28;20037;-78
2022/04/05 01:43:13;;;;;;;45.00;25.30;;;;;;;8.61;100.00;100432.84;5194370;28;20857;-75
2022/04/05 01:45:44;;;;;;;;;;;;;;;8.60;100.00;100420.72;5195170;28;20450;-76
2022/04/05 01:48:16;;;;;;;44.35;24.55;;;;;;;8.59;100.00;100419.88;5194566;28;19996;-77
2022/04/05 01:50:47;;;;;;;47.23;26.50;;;;;;;8.57;100.00;100417.28;5194725;28;20049;-76
2022/04/05 01:53:18;;;;;;;45.53;25.77;;;;;;;8.60;100.00;100426.81;5193992;28;20054;-78
2022/04/05 01:55:50;;;;;;;39.53;25.27;;;;;;;8.57;100.00;100424.25;5194268;28;20030;-82
2022/04/05 01:58:21;;;;;;;42.50;25.50;;;;;;;8.57;100.00;100432.88;5194539;28;20089;-77
2022/04/05 02:00:53;;;;;;;42.47;25.03;;;;;;;8.53;100.00;100413.03;5193996;28;20031;-76
2022/04/05 02:03:24;;;;;;;40.03;26.37;;;;;;;8.54;100.00;100422.53;5194006;28;20072;-79
2022/04/05 02:05:55;;;;;;;35.47;25.07;;;;;;;8.57;100.00;100426.84;5194205;28;20049;-79
2022/04/05 02:08:27;;;;;;;36.83;23.80;;;;;;;8.55;100.00;100424.25;5194416;28;20040;-78
2022/04/05 02:10:58;;;;;;;34.07;25.03;;;;;;;8.56;100.00;100419.91;5194609;28;20045;-80
2022/04/05 02:13:29;;;;;;;42.03;22.63;;;;;;;8.54;100.00;100424.28;5194893;28;20529;-80
2022/04/05 02:16:04;;;;;;;43.47;23.90;;;;;;;8.55;100.00;100423.41;5194589;28;20026;-79
2022/04/05 02:18:37;;;;;;;37.20;22.67;;;;;;;8.54;100.00;100424.28;5194437;28;20087;-75
2022/04/05 02:21:08;;;;;;;35.33;20.80;;;;;;;8.52;100.00;100429.47;5194193;28;20154;-76
2022/04/05 02:23:40;;;;;;;34.77;22.47;;;;;;;8.52;100.00;100424.28;5194409;28;20110;-79
2022/04/05 02:26:12;;;;;;;35.47;22.70;;;;;;;8.53;100.00;100425.13;5194295;28;20347;-79
2022/04/05 02:28:43;;;;;;;35.25;23.02;;;;;;;8.49;100.00;100426.06;5194312;28;20030;-79
2022/04/05 02:31:16;;;;;;;36.27;21.90;;;;;;;8.52;100.00;100434.69;5194752;28;20056;-79
2022/04/05 02:33:47;;;;;;;40.10;23.23;;;;;;;8.51;100.00;100430.34;5194593;28;20054;-76
2022/04/05 02:36:18;;;;;;;37.87;22.20;;;;;;;8.51;100.00;100427.75;5193597;28;20133;-80
2022/04/05 02:38:50;;;;;;;40.23;23.60;;;;;;;8.52;100.00;100423.44;5193937;28;20120;-81
2022/04/05 02:41:21;;;;;;;36.27;25.33;;;;;;;8.53;100.00;100430.34;5194003;28;20034;-75
2022/04/05 02:43:53;;;;;;;37.73;22.40;;;;;;;8.50;100.00;100427.75;5194138;28;20058;-78
2022/04/05 02:46:26;;;;;;;39.40;23.47;;;;;;;8.51;100.00;100421.69;5194403;28;20509;-81
2022/04/05 02:48:57;;;;;;;41.22;26.20;;;;;;;8.51;100.00;100430.34;5194394;28;20038;-78
2022/04/05 02:51:28;;;;;;;40.07;24.67;;;;;;;8.51;100.00;100432.94;5194467;28;20018;-76
2022/04/05 02:54:00;;;;;;;36.60;22.80;;;;;;;8.50;100.00;100431.25;5193960;28;20035;-78
2022/04/05 02:56:31;;;;;;;33.13;22.53;;;;;;;8.50;100.00;100426.03;5194059;28;20030;-79
2022/04/05 02:59:03;;;;;;;38.60;22.93;;;;;;;8.47;100.00;100425.19;5192441;28;20042;-83
2022/04/05 03:01:34;;;;;;;43.10;24.63;;;;;;;8.48;100.00;100419.13;5193332;28;20641;-77
2022/04/05 03:04:06;;;;;;;39.27;25.00;;;;;;;8.49;100.00;100423.47;5193962;28;20022;-79
2022/04/05 03:06:37;;;;;;;37.93;23.97;;;;;;;8.48;100.00;100425.19;5194179;28;20042;-75
2022/04/05 03:09:08;;;;;;;43.13;24.93;;;;;;;8.47;100.00;100418.28;5194078;28;20462;-77
2022/04/05 03:11:40;;;;;;;44.13;24.10;;;;;;;8.46;100.00;100421.75;5193999;28;20120;-76
2022/04/05 03:14:11;;;;;;;43.20;26.77;;;;;;;8.48;100.00;100424.31;5194422;28;20030;-79
2022/04/05 03:16:43;;;;;;;40.63;23.83;;;;;;;8.49;100.00;100421.72;5193825;28;20062;-77
2022/04/05 03:19:14;;;;;;;35.00;25.37;;;;;;;8.53;100.00;100430.34;5192115;28;20084;-78
2022/04/05 03:21:45;;;;;;;35.07;23.07;;;;;;;8.50;100.00;100427.75;5193430;28;20447;-78
2022/04/05 03:24:17;;;;;;;39.83;23.07;;;;;;;8.50;100.00;100427.75;5193823;28;20041;-80
2022/04/05 03:26:48;;;;;;;34.87;22.63;;;;;;;8.51;100.00;100434.69;5194376;28;20035;-78
2022/04/05 03:29:19;;;;;;;37.57;23.63;;;;;;;8.50;100.00;100425.16;5195145;28;20434;-79
2022/04/05 03:31:51;;;;;;;38.53;21.53;;;;;;;8.49;100.00;100428.66;5194037;28;20037;-76
2022/04/05 03:34:22;;;;;;;35.63;23.77;;;;;;;8.47;100.00;100428.66;5194694;28;20133;-80
2022/04/05 03:36:54;;;;;;;35.47;23.23;;;;;;;8.48;100.00;100421.72;5194914;28;20034;-81
2022/04/05 03:39:27;;;;;;;36.37;21.57;;;;;;;8.50;100.00;100422.56;5195093;28;20038;-77
2022/04/05 03:41:58;;;;;;;34.67;22.60;;;;;;;8.47;100.00;100425.19;5195007;28;20093;-78
2022/04/05 03:44:30;;;;;;;29.30;22.23;;;;;;;8.47;100.00;100423.47;5196747;28;20054;-80
2022/04/05 03:47:01;;;;;;;33.63;22.10;;;;;;;8.46;100.00;100420.91;5196194;28;20026;-77
2022/04/05 03:49:33;;;;;;;32.77;20.57;;;;;;;8.44;100.00;100410.50;5197638;28;20049;-78
2022/04/05 03:52:05;;;;;;;42.60;22.90;;;;;;;8.44;100.00;100417.47;5197292;28;20093;-76
2022/04/05 03:54:37;;;;;;;37.60;21.67;;;;;;;8.42;100.00;100411.38;5195766;28;20105;-78
2022/04/05 03:57:08;;;;;;;37.00;21.73;;;;;;;8.40;100.00;100424.38;5199447;28;20125;-80
2022/04/05 03:59:39;;;;;;;35.47;23.50;;;;;;;8.43;100.00;100420.88;5203328;28;20034;-76
2022/04/05 04:02:11;;;;;;;34.00;22.33;;;;;;;8.41;100.00;100415.72;5198024;28;20104;-75
2022/04/05 04:04:42;;;;;;;29.40;20.87;;;;;;;8.41;100.00;100415.72;5197763;28;20041;-76
2022/04/05 04:07:14;;;;;;;37.03;21.50;;;;;;;8.41;100.00;100407.91;5205011;28;20030;-80
2022/04/05 04:09:45;;;;;;;36.00;20.57;;;;;;;8.41;100.00;100415.72;5203660;28;20037;-81
2022/04/05 04:12:17;;;;;;;32.17;21.27;;;;;;;8.40;100.00;100412.25;5203139;28;20066;-79
2022/04/05 04:14:48;;;;;;;32.27;20.53;;;;;;;8.42;100.00;100411.38;5202973;28;20030;-78
2022/04/05 04:17:19;;;;;;;33.00;20.30;;;;;;;8.39;100.00;100414.88;5206106;28;20030;-77
2022/04/05 04:19:52;;;;;;;35.33;19.90;;;;;;;8.40;100.00;100417.44;5202825;28;20089;-79
2022/04/05 04:22:23;;;;;;;32.03;19.75;;;;;;;8.39;100.00;100413.13;5198629;28;20034;-79
2022/04/05 04:24:57;;;;;;;37.87;21.60;;;;;;;8.38;100.00;100410.53;5203657;28;20088;-84
2022/04/05 04:27:28;;;;;;;33.75;21.00;;;;;;;8.39;100.00;100422.66;5203871;28;20113;-80
2022/04/05 04:30:01;;;;;;;29.80;21.60;;;;;;;8.40;100.00;100420.06;5198769;28;20030;-74
2022/04/05 04:32:32;;;;;;;29.85;20.25;;;;;;;8.39;100.00;100417.47;5197068;28;20058;-80
2022/04/05 04:35:04;;;;;;;30.60;20.90;;;;;;;8.42;100.00;100416.56;5197975;28;20097;-80
2022/04/05 04:37:36;;;;;;;26.87;20.87;;;;;;;8.40;100.00;100421.75;5197448;28;20038;-81
2022/04/05 04:40:08;;;;;;;33.40;19.70;;;;;;;8.39;100.00;100415.72;5198143;28;20530;-77
2022/04/05 04:42:39;;;;;;;32.53;20.60;;;;;;;8.40;100.00;100424.38;5197879;28;20025;-81
2022/04/05 04:45:12;;;;;;;28.40;19.90;;;;;;;8.40;100.00;100419.16;5198785;28;20112;-84
2022/04/05 04:47:43;;;;;;;31.02;20.67;;;;;;;8.40;100.00;100422.66;5197685;28;20046;-82
2022/04/05 04:50:14;;;;;;;31.57;21.20;;;;;;;8.40;100.00;100430.44;5197524;28;20558;-79
2022/04/05 04:52:46;;;;;;;27.13;20.37;;;;;;;8.40;100.00;100433.03;5179890;28;20080;-74
2022/04/05 04:55:17;;;;;;;33.57;19.73;;;;;;;8.43;100.00;100423.47;5197434;28;20442;-77
2022/04/05 04:57:48;;;;;;;30.70;21.67;;;;;;;8.41;100.00;100426.09;5196889;28;20022;-80
2022/04/05 05:00:20;;;;;;;26.03;20.10;;;;;;;8.40;100.00;100422.66;5198087;28;20045;-75
2022/04/05 05:02:52;;;;;;;33.67;23.10;;;;;;;8.40;100.00;100425.25;5196124;28;20033;-76
2022/04/05 05:05:23;;;;;;;28.60;23.13;;;;;;;8.40;100.00;100427.84;5197659;28;20037;-78
2022/04/05 05:07:54;;;;;;;32.73;20.30;;;;;;;8.38;100.00;100419.19;5197626;28;20386;-77
2022/04/05 05:10:26;;;;;;;29.53;22.67;;;;;;;8.39;100.00;100433.91;5197459;28;20081;-81
2022/04/05 05:12:57;;;;;;;31.57;20.73;;;;;;;8.39;100.00;100422.66;5197276;28;20074;-79
2022/04/05 05:15:29;;;;;;;29.67;21.97;;;;;;;8.39;100.00;100427.84;5196175;28;20038;-82
2022/04/05 05:18:00;;;;;;;26.03;20.67;;;;;;;8.39;100.00;100422.66;5196242;28;20089;-74
2022/04/05 05:20:31;;;;;;;31.63;21.23;;;;;;;8.40;100.00;100425.25;5196602;28;20085;-82
2022/04/05 05:23:03;;;;;;;27.93;21.70;;;;;;;8.40;100.00;100430.44;5196740;28;20037;-77
2022/04/05 05:25:34;;;;;;;31.53;22.20;;;;;;;8.40;100.00;100435.63;5178104;28;20184;-78
2022/04/05 05:28:06;;;;;;;32.10;21.97;;;;;;;8.39;100.00;100433.91;5196554;28;20042;-78
2022/04/05 05:30:37;;;;;;;27.60;21.20;;;;;;;8.39;100.00;100439.09;5197076;28;20208;-84
2022/04/05 05:33:09;;;;;;;27.90;20.33;;;;;;;8.39;100.00;100439.09;5197765;28;20478;-80
2022/04/05 05:35:41;;;;;;;29.50;21.83;;;;;;;8.38;100.00;100432.16;5197023;28;20209;-84
2022/04/05 05:38:13;;;;;;;36.53;22.85;;;;;;;8.38;100.00;100437.38;5198145;28;20034;-80
2022/04/05 05:40:44;;;;;;;26.47;20.73;;;;;;;8.39;100.00;100438.25;5197218;28;20030;-83
2022/04/05 05:43:16;;;;;;;30.13;20.93;;;;;;;8.38;100.00;100436.50;5197097;28;20502;-81
2022/04/05 05:45:47;;;;;;;31.67;20.83;;;;;;;8.39;100.00;100444.28;5196834;28;20113;-87
2022/04/05 05:48:18;;;;;;;34.93;22.77;;;;;;;8.37;100.00;100443.44;5197712;28;20433;-78
2022/04/05 05:50:51;;;;;;;34.77;22.07;;;;;;;8.38;100.00;100447.75;5181463;28;20073;-82
2022/04/05 05:53:22;;;;;;;37.47;25.42;;;;;;;8.39;100.00;100457.28;5208243;28;20034;-77
2022/04/05 05:55:54;;;;;;;32.63;22.70;;;;;;;8.40;100.00;100460.72;5214629;28;20022;-81
2022/04/05 05:58:25;;;;;;;39.47;23.13;;;;;;;8.39;100.00;100457.28;5213281;28;20330;-78
2022/04/05 06:00:57;;;;;;;39.40;25.33;;;;;;;8.39;100.00;100459.03;5214080;28;20041;-79
2022/04/05 06:03:28;;;;;;;37.37;25.20;;;;;;;8.39;100.00;100465.06;5216057;28;20030;-76
2022/04/05 06:05:59;;;;;;;39.17;26.80;;;;;;;8.39;100.00;100467.66;5215158;28;20085;-84
2022/04/05 06:08:31;;;;;;;37.93;25.17;;;;;;;8.39;100.00;100462.47;5215743;28;20045;-75
2022/04/05 06:11:02;;;;;;;34.87;23.53;;;;;;;8.39;100.00;100459.88;5217246;28;20026;-85
2022/04/05 06:13:34;;;;;;;36.40;24.00;;;;;;;8.38;100.00;100463.34;5216684;28;20110;-88
2022/04/05 06:16:09;;;;;;;40.47;24.90;;;;;;;8.38;100.00;100465.09;5217435;28;20026;-81
2022/04/05 06:18:42;;;;;;;33.85;22.92;;;;;;;8.38;100.00;100465.94;5184942;28;20665;-80
2022/04/05 06:21:14;;;;;;;36.13;23.15;;;;;;;8.37;100.00;100459.03;5216081;28;20074;-75
2022/04/05 06:23:46;;;;;;;34.97;21.92;;;;;;;8.39;100.00;100462.47;5217350;28;20054;-76
2022/04/05 06:26:17;;;;;;;31.80;21.57;;;;;;;8.42;100.00;100463.31;5215237;28;20037;-77
2022/04/05 06:28:49;;;;;;;31.03;19.70;;;;;;;8.43;100.00;100470.25;5216164;28;20026;-83
2022/04/05 06:31:20;;;;;;;29.30;18.37;;;;;;;8.47;100.00;100472.84;5215712;28;20022;-76
2022/04/05 06:33:52;;;;;;;31.80;18.57;;;;;;;8.49;100.00;100475.41;5200089;28;20331;-77
2022/04/05 06:36:23;;;;;;;29.07;20.57;;;;;;;8.50;100.00;100477.13;5215638;28;20074;-76
2022/04/05 06:38:54;;;;;;;23.53;16.40;;;;;;;8.49;100.00;100478.00;5217047;28;20065;-79
2022/04/05 06:41:26;;;;;;;25.40;17.60;;;;;;;8.52;100.00;100476.25;5218644;28;20054;-83
2022/04/05 06:43:57;;;;;;;23.83;15.00;;;;;;;8.56;100.00;100488.34;5207716;28;20050;-75
2022/04/05 06:46:29;;;;;;;24.33;15.53;;;;;;;8.60;100.00;100478.78;5197475;28;20298;-81
2022/04/05 06:49:05;;;;;;;22.30;15.13;;;;;;;8.61;100.00;100483.06;5217198;28;20113;-83
2022/04/05 06:51:36;;;;;;;22.77;15.15;;;;;;;8.63;100.00;100494.34;5217314;28;20050;-88
2022/04/05 06:54:09;;;;;;;18.43;13.27;;;;;;;8.65;100.00;100484.78;5217419;28;20031;-76
2022/04/05 06:56:40;;;;;;;20.95;14.32;;;;;;;8.64;100.00;100498.63;5216032;28;20030;-76
2022/04/05 06:59:11;;;;;;;21.07;13.47;;;;;;;8.67;100.00;100495.16;5217274;28;20065;-79
2022/04/05 07:01:43;;;;;;;23.23;13.70;;;;;;;8.66;100.00;100489.13;5217621;28;20034;-88
2022/04/05 07:04:14;;;;;;;20.90;13.80;;;;;;;8.68;100.00;100499.50;5216961;28;20049;-76
2022/04/05 07:06:47;;;;;;;18.27;13.77;;;;;;;8.68;100.00;100495.16;5217205;28;20031;-78
2022/04/05 07:09:18;;;;;;;21.25;13.75;;;;;;;8.66;100.00;100512.50;5217414;28;20002;-81
2022/04/05 07:11:49;;;;;;;23.97;14.97;;;;;;;8.66;100.00;100496.91;5216566;28;20057;-90
2022/04/05 07:14:24;;;;;;;22.80;13.10;;;;;;;8.66;100.00;100502.09;5217002;28;20111;-89
2022/04/05 07:16:55;;;;;;;20.90;14.10;;;;;;;8.69;100.00;100499.44;5216637;28;20030;-80
2022/04/05 07:19:27;;;;;;;20.10;12.43;;;;;;;8.74;100.00;100502.88;5216280;28;20066;-76
2022/04/05 07:21:59;;;;;;;16.02;12.88;;;;;;;8.79;100.00;100509.75;5215933;28;20023;-87
2022/04/05 07:24:31;;;;;;;22.75;11.88;;;;;;;8.80;100.00;100506.31;5216474;28;20172;-84
2022/04/05 07:27:03;;;;;;;23.67;13.27;;;;;;;8.80;100.00;100503.69;5215904;28;20050;-80
2022/04/05 07:29:34;;;;;;;15.20;11.33;;;;;;;8.81;100.00;100502.84;5212671;28;20045;-82
2022/04/05 07:32:07;;;;;;;14.97;12.00;;;;;;;8.83;100.00;100498.47;5210818;28;20026;-81
2022/04/05 07:34:40;;;;;;;13.55;10.38;;;;;;;8.83;100.00;100490.69;5192027;28;20534;-85
2022/04/05 07:37:11;;;;;;;;;;;;;;;8.86;100.00;100495.84;5192357;28;20057;-85
2022/04/05 07:39:43;;;;;;;18.10;9.35;;;;;;;8.86;100.00;100488.03;5216863;28;20491;-76
2022/04/05 07:42:14;;;;;;;18.43;10.40;;;;;;;8.91;100.00;100494.91;5218221;28;20030;-80
2022/04/05 07:44:46;;;;;;;13.27;9.20;;;;;;;8.96;100.00;100494.84;5216656;28;20046;-83
2022/04/05 07:47:17;;;;;;;13.30;9.63;;;;;;;9.00;100.00;100493.06;5216471;28;20042;-87
2022/04/05 07:49:49;;;;;;;17.67;10.20;;;;;;;9.04;100.00;100494.78;5216524;28;20093;-78
2022/04/05 07:52:20;;;;;;;17.17;10.93;;;;;;;9.07;100.00;100498.19;5216773;28;20022;-83
2022/04/05 07:54:52;;;;;;;21.50;11.50;;;;;;;9.10;100.00;100499.91;5197023;28;20045;-83
2022/04/05 07:57:23;;;;;;;17.57;9.90;;;;;;;9.12;100.00;100499.00;5216296;28;20026;-84
2022/04/05 07:59:55;;;;;;;11.43;9.77;;;;;;;9.13;100.00;100505.94;5214535;28;20030;-81
2022/04/05 08:02:26;;;;;;;12.87;8.53;;;;;;;9.14;100.00;100506.78;5214866;28;20023;-81
2022/04/05 08:04:57;;;;;;;15.67;8.70;;;;;;;9.13;100.00;100500.75;5212403;28;20394;-86
2022/04/05 08:07:29;;;;;;;13.73;9.53;;;;;;;9.17;100.00;100500.72;5208584;28;20045;-80
2022/04/05 08:10:00;;;;;;;14.40;8.67;;;;;;;9.16;100.00;100494.66;5205988;28;20036;-84
2022/04/05 08:12:38;;;;;;;20.03;8.30;;;;;;;9.21;100.00;100497.16;5205328;28;20088;-86
2022/04/05 08:15:21;;;;;;;11.65;8.52;;;;;;;9.23;100.00;100504.09;5205743;28;20026;-85
2022/04/05 08:17:52;;;;;;;16.27;8.13;;;;;;;9.26;100.00;100509.25;5205007;28;20034;-87
2022/04/05 08:20:24;;;;;;;9.90;7.67;;;;;;;9.26;100.00;100504.06;5204660;28;20113;-85
2022/04/05 08:23:00;;;;;;;13.80;8.13;;;;;;;9.30;100.00;100504.88;5184288;28;20039;-85
2022/04/05 08:25:31;;;;;;;10.25;8.23;;;;;;;9.37;100.00;100526.47;5203663;28;20033;-86
2022/04/05 08:28:04;;;;;;;12.03;7.57;;;;;;;9.41;100.00;100517.75;5202587;28;20041;-85
2022/04/05 08:30:36;;;;;;;10.55;7.03;;;;;;;9.46;100.00;100509.00;5200524;28;20041;-86
2022/04/05 08:33:07;;;;;;;11.03;7.23;;;;;;;9.48;100.00;100517.66;5199911;28;20023;-81
2022/04/05 08:35:39;;;;;;;16.70;7.30;;;;;;;9.52;100.00;100515.03;5182796;28;20046;-81
2022/04/05 08:38:11;;;;;;;11.75;7.65;;;;;;;9.54;100.00;100510.66;5203317;28;20030;-80
2022/04/05 08:40:42;;;;;;;10.43;7.60;;;;;;;9.55;100.00;100523.66;5201403;28;20585;-83
2022/04/05 08:43:14;;;;;;;14.27;7.93;;;;;;;9.57;100.00;100521.03;5209312;28;20054;-85
2022/04/05 08:45:53;;;;;;;14.63;8.37;;;;;;;9.64;100.00;100520.94;5202747;28;20030;-78
2022/04/05 08:48:27;;;;;;;8.13;6.45;;;;;;;9.69;100.00;100515.66;5200248;28;20030;-81
2022/04/05 08:50:59;;;;;;;14.70;8.23;;;;;;;9.70;100.00;100516.53;5190207;28;20035;-81
2022/04/05 08:53:32;;;;;;;10.23;7.00;;;;;;;9.64;100.00;100526.16;5201271;28;20111;-86
2022/04/05 08:56:04;;;;;;;9.68;7.15;;;;;;;9.64;100.00;100527.88;5200245;28;20037;-83
2022/04/05 08:58:35;;;;;;;12.27;7.30;;;;;;;9.68;100.00;100524.34;5198297;28;20360;-81
2022/04/05 09:01:08;;;;;;;8.47;7.50;;;;;;;9.66;100.00;100516.56;5197624;28;20057;-83
2022/04/05 09:03:39;;;;;;;;;;;;;;;9.68;100.00;100520.00;5199623;28;20034;-84
2022/04/05 09:06:29;;;;;;;13.25;7.57;;;;;;;9.66;100.00;100528.72;5199484;28;20211;-83
2022/04/05 09:09:16;;;;;;;11.80;7.30;;;;;;;9.67;100.00;100531.28;5199100;28;20022;-81
2022/04/05 09:11:50;;;;;;;11.38;7.40;;;;;;;9.65;100.00;100529.59;5181439;28;20442;-82
2022/04/05 09:14:27;;;;;;;12.30;8.52;;;;;;;9.75;100.00;100525.97;5198571;28;20108;-81
2022/04/05 09:17:14;;;;;;;12.35;8.77;;;;;;;9.86;100.00;100539.72;5199021;28;20026;-83
2022/04/05 09:19:46;;;;;;;13.95;7.72;;;;;;;9.81;100.00;100528.50;5199803;28;20034;-85
2022/04/05 09:22:33;;;;;;;14.23;8.70;;;;;;;9.81;100.00;100538.06;5199584;28;20026;-86
2022/04/05 09:25:10;;;;;;;12.63;8.75;;;;;;;9.79;100.00;100539.84;5199557;28;20033;-83
2022/04/05 09:27:56;;;;;;;13.43;9.05;;;;;;;9.79;100.00;100542.44;5200783;28;20097;-83
2022/04/05 09:30:31;;;;;;;17.50;9.10;;;;;;;9.90;100.00;100542.28;5198451;28;20026;-81
2022/04/05 09:33:04;;;;;;;11.48;8.48;;;;;;;9.95;100.00;100537.84;5180576;28;20197;-83
2022/04/05 09:35:42;;;;;;;;;;;;;;;10.01;100.00;100546.47;5179839;28;20387;-84
2022/04/05 09:38:17;;;;;;;14.57;9.00;;;;;;;9.98;100.00;100553.44;5196699;28;19930;-82
2022/04/05 09:40:52;;;;;;;13.13;8.85;;;;;;;9.83;100.00;100554.53;5199942;28;20073;-83
2022/04/05 09:43:23;;;;;;;11.93;9.77;;;;;;;9.81;100.00;100554.53;5198333;28;20038;-83
2022/04/05 09:46:00;;;;;;;13.93;8.93;;;;;;;9.73;100.00;100556.38;5191074;28;20102;-84
2022/04/05 09:48:35;;;;;;;14.68;9.77;;;;;;;9.75;100.00;100549.41;5200808;28;20497;-83
2022/04/05 09:51:10;;;;;;;11.38;8.90;;;;;;;9.69;100.00;100552.09;5207053;28;20038;-83
2022/04/05 09:53:46;;;;;;;12.15;9.68;;;;;;;9.75;100.00;100554.59;5211641;28;20022;-86
2022/04/05 09:56:33;;;;;;;13.63;9.32;;;;;;;9.90;100.00;100547.47;5209295;28;20282;-82
2022/04/05 09:59:16;;;;;;;9.82;8.82;;;;;;;9.95;100.00;100546.53;5209823;28;20027;-81
2022/04/05 10:01:51;;;;;;;11.70;8.98;;;;;;;9.80;100.00;100552.81;5208638;28;20092;-82
2022/04/05 10:04:23;;;;;;;13.98;9.57;;;;;;;9.86;100.00;100544.91;5216812;28;20038;-85
2022/04/05 10:06:54;;;;;;;12.70;8.87;;;;;;;9.75;100.00;100545.94;5194116;28;20053;-85
2022/04/05 10:09:28;;;;;;;13.47;9.57;;;;;;;9.77;100.00;100546.78;5200292;28;20478;-88
2022/04/05 10:12:00;;;;;;;11.50;8.65;;;;;;;9.78;100.00;100553.72;5198667;28;20398;-89
2022/04/05 10:14:31;;;;;;;13.10;8.77;;;;;;;9.79;100.00;100555.47;5200194;28;20172;-86
2022/04/05 10:17:02;;;;;;;13.27;7.70;;;;;;;9.85;100.00;100555.34;5202984;28;20496;-84
2022/04/05 10:19:35;;;;;;;13.37;8.10;;;;;;;9.91;100.00;100551.81;5206457;28;20067;-86
2022/04/05 10:22:07;;;;;;;12.82;8.32;;;;;;;10.03;100.00;100557.72;5213682;28;20038;-84
2022/04/05 10:24:39;;;;;;;10.20;6.67;;;;;;;10.16;100.00;100558.41;5215756;28;20038;-84
2022/04/05 10:27:11;;;;;;;24.23;7.25;;;;;;;10.40;100.00;100557.19;5215014;28;20109;-85
2022/04/05 10:29:44;;;;;;;9.10;6.25;;;;;;;10.52;100.00;100550.06;5213575;28;20038;-84
2022/04/05 10:32:31;;;;;;;7.65;5.72;;;;;;;10.47;100.00;100551.91;5212045;28;20022;-84
2022/04/05 10:35:08;;;;;;;10.90;6.20;;;;;;;10.48;100.00;100549.25;5194494;28;20049;-82
2022/04/05 10:37:41;;;;;;;8.85;6.05;;;;;;;10.39;100.00;100549.41;5196199;28;20526;-79
2022/04/05 10:40:15;;;;;;;10.65;6.55;;;;;;;10.45;100.00;100551.03;5207514;28;20019;-86
2022/04/05 10:42:54;;;;;;;9.98;6.15;;;;;;;10.56;100.00;100547.38;5201804;28;20030;-82
2022/04/05 10:45:29;;;;;;;8.80;6.00;;;;;;;10.76;100.00;100549.66;5200289;28;20042;-83
2022/04/05 10:48:25;;;;;;;9.85;5.30;;;;;;;10.92;100.00;100545.03;5181323;28;20038;-81
2022/04/05 10:50:59;;;;;;;7.63;5.60;;;;;;;11.06;100.00;100546.50;5199248;28;20117;-82
2022/04/05 10:54:17;;;;;;;10.77;6.10;;;;;;;11.01;100.00;100559.66;5200807;28;20390;-84
2022/04/05 10:56:34;;;;;;;8.48;4.95;;;;;;;10.88;99.28;100551.19;5202152;28;20045;-88
2022/04/05 10:59:16;;;;;;;7.47;5.10;;;;;;;10.99;99.36;100543.16;5200877;28;20038;-83
2022/04/05 11:01:48;;;;;;;7.55;5.05;;;;;;;10.87;99.25;100546.84;5204897;28;20037;-85
2022/04/05 11:04:29;;;;;;;8.70;5.17;;;;;;;10.97;99.12;100546.69;5214180;28;20026;-83
2022/04/05 11:07:03;;;;;;;10.20;5.07;;;;;;;11.15;99.23;100548.09;5214297;28;20026;-84
2022/04/05 11:09:40;;;;;;;8.13;5.13;;;;;;;11.05;97.77;100542.19;5215301;28;20018;-87
2022/04/05 11:12:25;;;;;;;7.53;4.35;;;;;;;11.01;100.00;100548.34;5211958;28;20066;-79
2022/04/05 11:15:04;;;;;;;6.65;5.32;;;;;;;11.13;100.00;100561.16;5216651;28;20050;-81
2022/04/05 11:17:37;;;;;;;7.50;4.70;;;;;;;10.93;100.00;100541.53;5195937;28;20084;-83
2022/04/05 11:20:10;;;;;;;7.20;5.20;;;;;;;10.83;100.00;100555.59;5216092;28;20034;-77
2022/04/05 11:22:43;;;;;;;9.50;5.18;;;;;;;10.69;100.00;100550.66;5217803;28;20030;-81
2022/04/05 11:25:27;;;;;;;10.02;5.15;;;;;;;10.67;100.00;100555.00;5197894;28;20038;-84
2022/04/05 11:28:16;;;;;;;7.68;5.05;;;;;;;10.86;100.00;100547.72;5215312;28;20145;-84
2022/04/05 11:31:04;;;;;;;9.93;5.65;;;;;;;10.91;100.00;100543.28;5213380;28;20049;-85
2022/04/05 11:33:39;;;;;;;10.23;5.65;;;;;;;10.97;100.00;100538.88;5204733;28;20121;-87
2022/04/05 11:36:14;;;;;;;7.18;5.30;;;;;;;10.95;100.00;100550.19;5204793;28;20082;-81
2022/04/05 11:38:58;;;;;;;8.75;5.13;;;;;;;10.87;100.00;100546.84;5205848;28;20085;-88
2022/04/05 11:41:31;;;;;;;7.88;5.72;;;;;;;10.79;100.00;100543.53;5187817;28;20030;-89